Time;durP1;ratioP1;P1;durP2;ratioP2;P2;SDS_P1;SDS_P2;PMS_P1;PMS_P2;Temp;Humidity;BMP_temperature;BMP_pressure;BME280_temperature;BME280_humidity;BME280_pressure;Samples;Min_cycle;Max_cycle;Signal;HPM_P1;HPM_P2
2021/08/04 00:00:47;;;;;;;4.88;3.70;;;15.30;99.90;;;;;;2057172;28;20041;-71
2021/08/04 00:01:48;;;;;;;5.75;3.42;;;15.20;99.90;;;;;;2057255;28;20031;-69
2021/08/04 00:02:48;;;;;;;5.05;3.67;;;15.20;99.90;;;;;;2057169;28;20027;-70
2021/08/04 00:03:49;;;;;;;4.93;3.60;;;15.20;99.90;;;;;;2057152;28;20053;-70
2021/08/04 00:04:49;;;;;;;7.88;3.63;;;15.20;99.90;;;;;;2057119;28;20023;-70
2021/08/04 00:05:50;;;;;;;4.70;3.60;;;15.20;99.90;;;;;;2057087;28;20090;-71
2021/08/04 00:06:50;;;;;;;4.25;3.13;;;15.20;99.90;;;;;;2056821;28;20090;-71
2021/08/04 00:07:51;;;;;;;3.33;3.03;;;15.10;99.90;;;;;;2056562;28;20394;-71
2021/08/04 00:08:52;;;;;;;4.57;3.22;;;15.20;99.90;;;;;;2057252;28;20033;-71
2021/08/04 00:09:52;;;;;;;3.92;3.17;;;15.10;99.90;;;;;;2057500;28;20528;-69
2021/08/04 00:10:53;;;;;;;5.40;3.20;;;15.10;99.90;;;;;;2057074;28;20054;-70
2021/08/04 00:11:54;;;;;;;4.53;3.13;;;15.10;99.90;;;;;;2057234;28;20061;-70
2021/08/04 00:12:54;;;;;;;4.22;3.10;;;15.10;99.90;;;;;;2057409;28;20037;-70
2021/08/04 00:13:55;;;;;;;3.42;3.13;;;15.10;99.90;;;;;;2057293;28;20031;-71
2021/08/04 00:14:56;;;;;;;5.40;3.08;;;15.10;99.90;;;;;;2057332;28;20078;-70
2021/08/04 00:15:57;;;;;;;4.07;2.90;;;15.00;99.90;;;;;;2056499;28;20041;-70
2021/08/04 00:16:58;;;;;;;3.75;3.17;;;15.00;99.90;;;;;;2056270;28;20049;-70
2021/08/04 00:17:58;;;;;;;3.15;2.85;;;15.00;99.90;;;;;;2056771;28;20049;-71
2021/08/04 00:18:59;;;;;;;4.53;3.35;;;15.00;99.90;;;;;;2057052;28;20035;-70
2021/08/04 00:20:00;;;;;;;6.15;3.13;;;15.00;99.90;;;;;;2056542;28;20030;-68
2021/08/04 00:21:01;;;;;;;4.60;3.10;;;15.00;99.90;;;;;;2056152;28;20081;-70
2021/08/04 00:22:02;;;;;;;3.90;3.08;;;15.00;99.90;;;;;;2056796;28;20756;-70
2021/08/04 00:23:03;;;;;;;4.18;2.88;;;15.00;99.90;;;;;;2057652;28;20022;-70
2021/08/04 00:24:03;;;;;;;3.88;2.95;;;14.90;99.90;;;;;;2057370;28;20023;-70
2021/08/04 00:25:05;;;;;;;4.25;3.28;;;15.00;99.90;;;;;;2057039;28;20499;-71
2021/08/04 00:26:06;;;;;;;4.07;3.33;;;15.00;99.90;;;;;;2055803;28;20065;-71
2021/08/04 00:27:06;;;;;;;4.15;3.20;;;14.90;99.90;;;;;;2048780;29;20034;-71
2021/08/04 00:28:07;;;;;;;4.10;3.40;;;14.90;99.90;;;;;;2056649;28;20033;-71
2021/08/04 00:29:07;;;;;;;4.38;3.20;;;14.90;99.90;;;;;;2056610;28;20522;-71
2021/08/04 00:30:09;;;;;;;3.40;3.10;;;14.90;99.90;;;;;;2056740;28;20066;-70
2021/08/04 00:31:10;;;;;;;3.67;3.20;;;14.90;99.90;;;;;;2056729;28;20041;-70
2021/08/04 00:32:10;;;;;;;4.22;3.10;;;14.90;99.90;;;;;;2056844;28;20015;-70
2021/08/04 00:33:11;;;;;;;4.53;3.47;;;14.90;99.90;;;;;;2056887;28;20051;-70
2021/08/04 00:34:12;;;;;;;5.43;3.50;;;14.90;99.90;;;;;;2056779;28;20027;-69
2021/08/04 00:35:13;;;;;;;4.35;3.17;;;14.90;99.90;;;;;;2056472;28;20371;-70
2021/08/04 00:36:14;;;;;;;3.80;3.35;;;14.90;99.90;;;;;;2048595;28;20078;-69
2021/08/04 00:37:16;;;;;;;4.45;3.28;;;14.90;99.90;;;;;;2048801;29;20071;-69
2021/08/04 00:38:17;;;;;;;4.05;3.05;;;14.90;99.90;;;;;;2056182;28;20031;-69
2021/08/04 00:39:17;;;;;;;3.50;3.08;;;14.90;99.90;;;;;;2048391;28;20118;-69
2021/08/04 00:40:18;;;;;;;4.75;3.20;;;14.90;99.90;;;;;;2056541;28;20491;-69
2021/08/04 00:41:19;;;;;;;3.30;3.00;;;14.90;99.90;;;;;;2057283;28;20458;-69
2021/08/04 00:42:20;;;;;;;3.55;2.97;;;14.90;99.90;;;;;;2056339;28;20034;-69
2021/08/04 00:43:21;;;;;;;4.03;3.40;;;14.90;99.90;;;;;;2056474;28;20033;-69
2021/08/04 00:44:22;;;;;;;3.92;3.28;;;14.90;99.90;;;;;;2056655;28;20522;-69
2021/08/04 00:45:23;;;;;;;3.58;3.00;;;14.90;99.90;;;;;;2057101;28;20055;-69
2021/08/04 00:46:23;;;;;;;3.38;3.08;;;15.00;99.90;;;;;;2057199;28;20027;-69
2021/08/04 00:47:24;;;;;;;3.55;3.25;;;15.00;99.90;;;;;;2056767;28;20030;-69
2021/08/04 00:48:26;;;;;;;3.60;3.20;;;15.00;99.90;;;;;;2048263;28;20046;-69
2021/08/04 00:49:26;;;;;;;3.58;3.20;;;15.00;99.90;;;;;;2056770;28;20038;-69
2021/08/04 00:50:28;;;;;;;5.57;3.40;;;14.90;99.90;;;;;;2057673;28;20031;-69
2021/08/04 00:51:29;;;;;;;4.05;3.45;;;14.90;99.90;;;;;;2049786;28;20042;-69
2021/08/04 00:52:29;;;;;;;4.30;3.20;;;14.90;99.90;;;;;;2057637;28;20041;-69
2021/08/04 00:53:30;;;;;;;4.15;3.33;;;14.90;99.90;;;;;;2058410;28;20047;-70
2021/08/04 00:54:35;;;;;;;3.05;2.70;;;14.90;99.90;;;;;;2059964;28;20066;-70
2021/08/04 00:55:35;;;;;;;3.47;3.10;;;14.90;99.90;;;;;;2058127;28;20082;-69
2021/08/04 00:56:37;;;;;;;4.13;2.97;;;14.90;99.90;;;;;;2056465;28;20632;-68
2021/08/04 00:57:38;;;;;;;5.50;3.00;;;14.90;99.90;;;;;;2048326;28;20038;-69
2021/08/04 00:58:42;;;;;;;5.38;3.00;;;14.90;99.90;;;;;;2047924;29;20030;-70
2021/08/04 00:59:43;;;;;;;3.88;3.17;;;14.90;99.90;;;;;;2056489;28;20022;-70
2021/08/04 01:00:52;;;;;;;3.25;2.90;;;14.90;99.90;;;;;;2056455;28;20030;-70
2021/08/04 01:02:20;;;;;;;4.05;2.90;;;15.00;99.90;;;;;;2056430;28;20030;-70
2021/08/04 01:03:22;;;;;;;3.30;2.88;;;14.90;99.90;;;;;;2057006;28;20085;-70
2021/08/04 01:04:27;;;;;;;4.03;3.20;;;14.90;99.90;;;;;;2056966;28;20019;-70
2021/08/04 01:05:40;;;;;;;4.38;3.03;;;14.90;99.90;;;;;;2056897;28;20443;-70
2021/08/04 01:07:01;;;;;;;3.83;3.10;;;15.00;99.90;;;;;;2056695;28;20031;-70
2021/08/04 01:08:07;;;;;;;3.53;3.08;;;14.90;99.90;;;;;;2055912;28;20033;-70
2021/08/04 01:09:09;;;;;;;3.38;2.97;;;14.90;99.90;;;;;;2056356;28;20026;-70
2021/08/04 01:10:33;;;;;;;4.53;2.88;;;14.90;99.90;;;;;;2056222;28;20114;-70
2021/08/04 01:11:37;;;;;;;3.40;3.10;;;14.90;99.90;;;;;;2051398;28;20121;-70
2021/08/04 01:12:50;;;;;;;3.20;2.90;;;15.00;99.90;;;;;;2056404;28;20041;-70
2021/08/04 01:13:52;;;;;;;3.25;2.88;;;15.00;99.90;;;;;;2056547;28;20038;-70
2021/08/04 01:14:59;;;;;;;3.83;3.00;;;14.90;99.90;;;;;;2056137;28;20037;-70
2021/08/04 01:16:13;;;;;;;4.25;3.17;;;15.00;99.90;;;;;;2056288;28;20114;-70
2021/08/04 01:17:16;;;;;;;6.30;3.38;;;15.00;99.90;;;;;;2057192;28;20030;-70
2021/08/04 01:18:23;;;;;;;7.13;3.50;;;14.90;99.90;;;;;;2055886;28;20027;-70
2021/08/04 01:20:01;;;;;;;3.33;3.00;;;14.90;99.90;;;;;;2041555;29;20121;-70
2021/08/04 01:21:06;;;;;;;3.55;3.00;;;14.90;99.90;;;;;;2066371;28;20018;-70
2021/08/04 01:22:26;;;;;;;3.13;2.70;;;14.90;99.90;;;;;;2063822;28;20371;-70
2021/08/04 01:24:18;;;;;;;4.88;3.05;;;14.90;99.90;;;;;;2056408;28;20027;-70
2021/08/04 01:25:21;;;;;;;3.85;3.30;;;14.90;99.90;;;;;;2047845;29;20027;-70
2021/08/04 01:26:39;;;;;;;4.63;3.50;;;14.90;99.90;;;;;;2053761;28;20473;-70
2021/08/04 01:28:24;;;;;;;3.70;3.40;;;14.90;99.90;;;;;;2048281;28;20118;-69
2021/08/04 01:29:26;;;;;;;6.10;3.50;;;14.90;99.90;;;;;;2050699;28;20035;-69
2021/08/04 01:30:27;;;;;;;5.80;3.53;;;14.90;99.90;;;;;;2056192;28;20113;-70
2021/08/04 01:31:31;;;;;;;3.75;3.45;;;14.90;99.90;;;;;;2056229;28;20030;-69
2021/08/04 01:32:32;;;;;;;3.72;3.35;;;14.90;99.90;;;;;;2048563;28;20031;-69
2021/08/04 01:33:35;;;;;;;4.50;3.55;;;14.90;99.90;;;;;;2056174;28;20030;-69
2021/08/04 01:34:38;;;;;;;3.97;3.63;;;14.90;99.90;;;;;;2048358;28;20028;-70
2021/08/04 01:35:40;;;;;;;3.75;3.40;;;14.90;99.90;;;;;;2055970;28;20027;-69
2021/08/04 01:36:41;;;;;;;5.40;3.70;;;14.90;99.90;;;;;;2048235;28;20035;-70
2021/08/04 01:37:43;;;;;;;4.32;3.92;;;14.90;99.90;;;;;;2056091;28;20038;-70
2021/08/04 01:38:44;;;;;;;4.47;3.58;;;14.80;99.90;;;;;;2056589;28;20027;-70
2021/08/04 01:39:45;;;;;;;4.25;3.53;;;14.80;99.90;;;;;;2056640;28;20034;-70
2021/08/04 01:40:48;;;;;;;4.97;3.70;;;14.70;99.90;;;;;;2056912;28;20070;-70
2021/08/04 01:41:51;;;;;;;4.10;3.70;;;14.70;99.90;;;;;;2048017;29;20046;-70
2021/08/04 01:42:53;;;;;;;4.50;3.50;;;14.70;99.90;;;;;;2040497;28;20075;-70
2021/08/04 01:43:55;;;;;;;4.70;3.25;;;14.70;99.90;;;;;;2064246;28;20022;-70
2021/08/04 01:44:58;;;;;;;4.00;3.60;;;14.70;99.90;;;;;;2064077;28;20023;-70
2021/08/04 01:45:59;;;;;;;4.15;3.40;;;14.70;99.90;;;;;;2040363;29;20212;-70
2021/08/04 01:47:01;;;;;;;5.18;3.28;;;14.70;99.90;;;;;;2040141;29;20020;-70
2021/08/04 01:48:02;;;;;;;3.47;3.17;;;14.70;99.90;;;;;;2040315;28;20024;-70
2021/08/04 01:49:05;;;;;;;4.03;3.60;;;14.70;99.90;;;;;;2048452;28;20406;-70
2021/08/04 01:50:07;;;;;;;3.90;3.35;;;14.70;99.90;;;;;;2056335;28;20081;-70
2021/08/04 01:51:09;;;;;;;3.83;3.50;;;14.70;99.90;;;;;;2048186;29;20042;-70
2021/08/04 01:52:11;;;;;;;4.50;3.50;;;14.70;99.90;;;;;;2040803;28;20110;-70
2021/08/04 01:53:12;;;;;;;4.30;3.90;;;14.70;99.90;;;;;;2048300;28;20031;-70
2021/08/04 01:54:16;;;;;;;4.43;3.90;;;14.70;99.90;;;;;;2056483;28;20018;-70
2021/08/04 01:55:17;;;;;;;4.95;3.67;;;14.70;99.90;;;;;;2064582;28;20041;-70
2021/08/04 01:56:17;;;;;;;5.13;3.50;;;14.70;99.90;;;;;;2063549;28;20486;-70
2021/08/04 01:57:18;;;;;;;4.88;3.90;;;14.70;99.90;;;;;;2056018;28;20101;-70
2021/08/04 01:58:19;;;;;;;5.13;4.30;;;14.70;99.90;;;;;;2055237;28;20042;-70
2021/08/04 01:59:21;;;;;;;4.75;3.90;;;14.70;99.90;;;;;;2047751;29;20047;-70
2021/08/04 02:00:22;;;;;;;4.35;3.95;;;14.70;99.90;;;;;;2048219;28;20031;-70
2021/08/04 02:01:26;;;;;;;5.75;4.13;;;14.70;99.90;;;;;;2055911;28;20637;-71
2021/08/04 02:02:27;;;;;;;4.68;4.28;;;14.70;99.90;;;;;;2056483;28;20022;-71
2021/08/04 02:03:28;;;;;;;5.30;4.10;;;14.70;99.90;;;;;;2056041;28;20027;-70
2021/08/04 02:04:28;;;;;;;4.68;4.28;;;14.70;99.90;;;;;;2047707;29;20102;-70
2021/08/04 02:05:29;;;;;;;4.63;4.22;;;14.70;99.90;;;;;;2047994;29;20038;-70
2021/08/04 02:06:37;;;;;;;5.43;4.10;;;14.70;99.90;;;;;;2055905;28;20027;-70
2021/08/04 02:08:09;;;;;;;4.40;4.00;;;14.70;99.90;;;;;;2055930;28;20618;-70
2021/08/04 02:09:21;;;;;;;4.50;4.10;;;14.70;99.90;;;;;;2052128;28;20031;-70
2021/08/04 02:10:50;;;;;;;5.50;4.30;;;14.70;99.90;;;;;;2047909;29;20023;-70
2021/08/04 02:12:09;;;;;;;6.30;4.53;;;14.70;99.90;;;;;;2047086;28;20466;-71
2021/08/04 02:13:43;;;;;;;4.60;4.20;;;14.70;99.90;;;;;;2050312;28;20026;-70
2021/08/04 02:15:07;;;;;;;4.40;4.00;;;14.70;99.90;;;;;;2065449;28;20537;-71
2021/08/04 02:16:44;;;;;;;4.63;3.90;;;14.70;99.90;;;;;;2060836;28;20030;-71
2021/08/04 02:17:47;;;;;;;5.60;4.18;;;14.70;99.90;;;;;;2052562;28;20027;-71
2021/08/04 02:18:56;;;;;;;4.63;4.10;;;14.70;99.90;;;;;;2055646;28;20023;-69
2021/08/04 02:19:58;;;;;;;4.95;4.45;;;14.70;99.90;;;;;;2056717;28;20435;-70
2021/08/04 02:21:01;;;;;;;5.28;3.97;;;14.80;99.90;;;;;;2056075;28;20035;-70
2021/08/04 02:22:32;;;;;;;4.70;4.30;;;14.70;99.90;;;;;;2056228;28;20053;-71
2021/08/04 02:23:37;;;;;;;4.70;4.18;;;14.70;99.90;;;;;;2041483;28;20046;-69
2021/08/04 02:24:44;;;;;;;4.88;4.20;;;14.80;99.90;;;;;;2055930;28;20081;-70
2021/08/04 02:26:20;;;;;;;4.43;4.03;;;14.80;99.90;;;;;;2056772;28;20475;-70
2021/08/04 02:27:21;;;;;;;4.88;3.90;;;14.80;99.90;;;;;;2051735;28;20043;-70
2021/08/04 02:28:31;;;;;;;6.45;4.10;;;14.80;99.90;;;;;;2056068;28;20105;-69
2021/08/04 02:29:36;;;;;;;4.63;4.20;;;14.80;99.90;;;;;;2056584;28;20121;-69
2021/08/04 02:30:39;;;;;;;4.43;3.95;;;14.80;99.90;;;;;;2056211;28;20042;-69
2021/08/04 02:31:41;;;;;;;5.03;4.10;;;14.80;99.90;;;;;;2056635;28;20066;-69
2021/08/04 02:32:45;;;;;;;4.60;4.20;;;14.80;99.90;;;;;;2048738;28;20115;-70
2021/08/04 02:33:46;;;;;;;4.60;4.13;;;14.80;99.90;;;;;;2056330;28;20045;-70
2021/08/04 02:34:46;;;;;;;4.75;4.05;;;14.80;99.90;;;;;;2056223;28;20037;-69
2021/08/04 02:35:48;;;;;;;4.40;4.00;;;14.80;99.90;;;;;;2057033;28;20101;-69
2021/08/04 02:36:48;;;;;;;4.50;4.10;;;14.80;99.90;;;;;;2056254;28;20059;-69
2021/08/04 02:37:49;;;;;;;4.10;3.75;;;14.80;99.90;;;;;;2056134;28;20034;-68
2021/08/04 02:38:50;;;;;;;5.40;4.07;;;14.80;99.90;;;;;;2055114;28;20093;-69
2021/08/04 02:39:51;;;;;;;5.72;4.07;;;14.80;99.90;;;;;;2055481;28;20031;-70
2021/08/04 02:40:52;;;;;;;5.10;3.85;;;14.80;99.90;;;;;;2055598;28;20031;-69
2021/08/04 02:41:56;;;;;;;5.97;3.78;;;14.80;99.90;;;;;;2057134;28;20073;-70
2021/08/04 02:42:59;;;;;;;5.38;4.05;;;14.90;99.90;;;;;;2057748;28;20146;-72
2021/08/04 02:44:03;;;;;;;4.30;3.90;;;14.80;99.90;;;;;;2056922;28;20035;-70
2021/08/04 02:45:06;;;;;;;4.50;4.10;;;14.90;99.90;;;;;;2049419;28;20038;-70
2021/08/04 02:46:07;;;;;;;4.45;4.05;;;14.90;99.90;;;;;;2057145;28;20024;-69
2021/08/04 02:47:08;;;;;;;5.35;3.88;;;14.90;99.90;;;;;;2056851;28;20029;-70
2021/08/04 02:48:10;;;;;;;4.43;3.95;;;14.90;99.90;;;;;;2048620;28;20054;-70
2021/08/04 02:49:12;;;;;;;4.35;3.95;;;14.90;99.90;;;;;;2041314;29;20126;-68
2021/08/04 02:50:16;;;;;;;3.97;3.42;;;14.90;99.90;;;;;;2049342;28;20035;-68
2021/08/04 02:51:22;;;;;;;5.35;3.80;;;14.90;99.90;;;;;;2057649;28;20114;-68
2021/08/04 02:52:24;;;;;;;4.10;3.60;;;14.90;99.90;;;;;;2057554;28;20038;-68
2021/08/04 02:53:25;;;;;;;4.18;3.75;;;14.90;99.90;;;;;;2057833;28;20042;-70
2021/08/04 02:54:25;;;;;;;4.00;3.60;;;14.90;99.90;;;;;;2057722;28;20508;-69
2021/08/04 02:55:26;;;;;;;4.40;3.65;;;14.90;99.90;;;;;;2057090;28;20054;-70
2021/08/04 02:56:28;;;;;;;4.28;3.85;;;14.90;99.90;;;;;;2048801;29;20027;-70
2021/08/04 02:57:28;;;;;;;4.07;3.70;;;14.90;99.90;;;;;;2049048;28;20038;-69
2021/08/04 02:58:36;;;;;;;4.18;3.53;;;14.90;99.90;;;;;;2064602;28;20669;-69
2021/08/04 02:59:36;;;;;;;4.30;3.80;;;14.90;99.90;;;;;;2064149;28;20129;-70
2021/08/04 03:00:37;;;;;;;4.20;3.80;;;14.90;99.90;;;;;;2049062;28;20395;-70
2021/08/04 03:01:38;;;;;;;4.80;4.07;;;14.90;99.90;;;;;;2049034;29;20059;-70
2021/08/04 03:02:38;;;;;;;5.95;3.63;;;14.90;99.90;;;;;;2056983;28;20383;-70
2021/08/04 03:03:39;;;;;;;5.22;3.90;;;15.00;99.90;;;;;;2057929;28;20034;-70
2021/08/04 03:04:40;;;;;;;4.97;4.03;;;14.90;99.90;;;;;;2057087;28;20085;-69
2021/08/04 03:05:40;;;;;;;4.00;3.70;;;14.90;99.90;;;;;;2057125;28;20557;-71
2021/08/04 03:06:41;;;;;;;4.28;3.80;;;15.00;99.90;;;;;;2057538;28;20855;-70
2021/08/04 03:07:42;;;;;;;4.80;3.80;;;15.00;99.90;;;;;;2057281;28;20030;-69
2021/08/04 03:08:43;;;;;;;4.22;3.83;;;15.00;99.90;;;;;;2048704;28;20082;-70
2021/08/04 03:09:44;;;;;;;4.35;3.50;;;15.00;99.90;;;;;;2056919;28;20108;-70
2021/08/04 03:10:44;;;;;;;4.45;3.80;;;15.00;99.90;;;;;;2057426;28;20059;-71
2021/08/04 03:11:45;;;;;;;4.30;3.60;;;15.00;99.90;;;;;;2057438;28;20031;-71
2021/08/04 03:12:45;;;;;;;6.15;3.80;;;15.00;99.90;;;;;;2057323;28;20492;-70
2021/08/04 03:13:46;;;;;;;4.28;3.65;;;15.00;99.90;;;;;;2049298;29;20518;-71
2021/08/04 03:14:46;;;;;;;3.92;3.53;;;15.00;99.90;;;;;;2049199;29;20578;-71
2021/08/04 03:15:50;;;;;;;4.43;3.78;;;15.00;99.90;;;;;;2065192;28;20026;-71
2021/08/04 03:16:51;;;;;;;5.30;4.13;;;15.00;99.90;;;;;;2064115;28;20069;-70
2021/08/04 03:17:51;;;;;;;4.70;4.10;;;15.00;99.90;;;;;;2056667;28;20031;-69
2021/08/04 03:18:52;;;;;;;4.20;3.78;;;15.00;99.90;;;;;;2064966;28;20473;-72
2021/08/04 03:19:52;;;;;;;5.10;3.80;;;15.00;99.90;;;;;;2058088;28;20027;-71
2021/08/04 03:20:54;;;;;;;4.30;3.90;;;15.00;99.90;;;;;;2057538;28;20031;-69
2021/08/04 03:21:54;;;;;;;4.30;3.90;;;15.00;99.90;;;;;;2057161;28;20035;-71
2021/08/04 03:22:55;;;;;;;6.00;4.20;;;15.00;99.90;;;;;;2057293;28;20030;-70
2021/08/04 03:23:56;;;;;;;4.40;4.00;;;14.90;99.90;;;;;;2056995;28;20054;-71
2021/08/04 03:24:56;;;;;;;5.47;4.38;;;14.90;99.90;;;;;;2057257;28;20494;-71
2021/08/04 03:25:57;;;;;;;4.47;4.00;;;14.90;99.90;;;;;;2057281;28;20030;-71
2021/08/04 03:26:57;;;;;;;4.53;4.13;;;14.90;99.90;;;;;;2057348;28;20102;-70
2021/08/04 03:27:58;;;;;;;5.35;4.10;;;15.00;99.90;;;;;;2057312;28;20037;-71
2021/08/04 03:28:59;;;;;;;4.30;3.90;;;15.00;99.90;;;;;;2073017;28;20034;-71
2021/08/04 03:29:59;;;;;;;4.45;3.85;;;15.00;99.90;;;;;;2072902;28;20038;-70
2021/08/04 03:31:00;;;;;;;4.93;4.38;;;15.00;99.90;;;;;;2057352;28;20117;-70
2021/08/04 03:32:00;;;;;;;4.43;4.03;;;15.00;99.90;;;;;;2056660;28;20042;-71
2021/08/04 03:33:01;;;;;;;4.70;4.20;;;15.00;99.90;;;;;;2056903;28;20558;-69
2021/08/04 03:34:02;;;;;;;6.97;4.40;;;15.00;99.90;;;;;;2057232;28;20402;-70
2021/08/04 03:35:07;;;;;;;4.90;4.47;;;15.00;99.90;;;;;;2057511;28;20750;-71
2021/08/04 03:36:07;;;;;;;4.50;4.10;;;15.00;99.90;;;;;;2057176;28;20063;-70
2021/08/04 03:37:08;;;;;;;4.80;4.15;;;15.00;99.90;;;;;;2057087;28;20027;-69
2021/08/04 03:38:08;;;;;;;5.00;4.50;;;15.00;99.90;;;;;;2056671;28;20443;-70
2021/08/04 03:39:09;;;;;;;4.75;4.30;;;15.00;99.90;;;;;;2057143;28;20023;-70
2021/08/04 03:40:11;;;;;;;4.55;4.15;;;15.00;99.90;;;;;;2056545;28;20085;-69
2021/08/04 03:41:11;;;;;;;4.68;4.28;;;15.00;99.90;;;;;;2056625;28;20022;-69
2021/08/04 03:42:15;;;;;;;4.60;4.10;;;15.00;99.90;;;;;;2056856;28;20539;-70
2021/08/04 03:43:16;;;;;;;5.65;4.53;;;15.00;99.90;;;;;;2057112;28;20102;-71
2021/08/04 03:44:17;;;;;;;5.20;4.40;;;15.00;99.90;;;;;;2057300;28;20483;-71
2021/08/04 03:45:17;;;;;;;4.78;4.28;;;15.00;99.90;;;;;;2057034;28;20085;-69
2021/08/04 03:46:18;;;;;;;4.93;4.43;;;15.00;99.90;;;;;;2056632;28;20019;-69
2021/08/04 03:47:19;;;;;;;4.32;3.92;;;15.00;99.90;;;;;;2056484;28;20030;-70
2021/08/04 03:48:20;;;;;;;4.97;4.53;;;15.00;99.90;;;;;;2056637;28;20096;-70
2021/08/04 03:49:20;;;;;;;4.80;4.30;;;15.00;99.90;;;;;;2057626;28;20086;-70
2021/08/04 03:50:21;;;;;;;4.85;4.45;;;15.00;99.90;;;;;;2056721;28;20038;-70
2021/08/04 03:51:22;;;;;;;4.93;4.30;;;15.00;99.90;;;;;;2056792;28;20037;-70
2021/08/04 03:52:23;;;;;;;5.00;4.50;;;15.00;99.90;;;;;;2056871;28;20486;-71
2021/08/04 03:53:23;;;;;;;4.45;4.05;;;15.00;99.90;;;;;;2057285;28;20034;-70
2021/08/04 03:54:24;;;;;;;4.65;4.25;;;15.00;99.90;;;;;;2057237;28;20047;-71
2021/08/04 03:55:24;;;;;;;8.68;4.70;;;15.00;99.90;;;;;;2056447;28;20030;-71
2021/08/04 03:56:25;;;;;;;5.20;4.65;;;15.00;99.90;;;;;;2056250;28;20034;-71
2021/08/04 03:57:28;;;;;;;5.00;4.15;;;15.00;99.90;;;;;;2056910;28;20042;-71
2021/08/04 03:58:29;;;;;;;5.00;4.50;;;15.00;99.90;;;;;;2056583;28;20058;-71
2021/08/04 03:59:30;;;;;;;5.30;4.80;;;15.00;99.90;;;;;;2057024;28;20043;-70
2021/08/04 04:00:30;;;;;;;5.72;4.28;;;15.00;99.90;;;;;;2057270;28;20039;-72
2021/08/04 04:01:31;;;;;;;5.75;4.90;;;15.00;99.90;;;;;;2057117;28;20031;-69
2021/08/04 04:02:31;;;;;;;6.38;5.00;;;15.00;99.90;;;;;;2072514;28;20086;-69
2021/08/04 04:03:32;;;;;;;5.50;5.00;;;15.00;99.90;;;;;;2073093;28;20041;-70
2021/08/04 04:04:33;;;;;;;5.57;4.60;;;15.10;99.90;;;;;;2056562;28;20039;-70
2021/08/04 04:05:33;;;;;;;5.35;4.85;;;15.00;99.90;;;;;;2056587;28;20398;-71
2021/08/04 04:06:35;;;;;;;5.15;4.65;;;15.00;99.90;;;;;;2056470;28;20042;-70
2021/08/04 04:07:35;;;;;;;5.32;4.72;;;15.00;99.90;;;;;;2056696;28;20117;-69
2021/08/04 04:08:36;;;;;;;4.90;4.50;;;15.00;99.90;;;;;;2056756;28;20153;-70
2021/08/04 04:09:36;;;;;;;5.13;4.63;;;15.00;99.90;;;;;;2057331;28;20038;-70
2021/08/04 04:10:37;;;;;;;4.88;4.47;;;15.00;99.90;;;;;;2056769;28;20082;-70
2021/08/04 04:11:38;;;;;;;6.03;4.88;;;15.00;99.90;;;;;;2056880;28;20030;-71
2021/08/04 04:12:38;;;;;;;5.40;4.90;;;15.10;99.90;;;;;;2056768;28;20035;-70
2021/08/04 04:13:39;;;;;;;6.13;4.47;;;15.00;99.90;;;;;;2056866;28;20383;-70
2021/08/04 04:14:39;;;;;;;5.40;4.68;;;15.10;99.90;;;;;;2057398;28;20026;-70
2021/08/04 04:15:40;;;;;;;5.78;4.72;;;15.00;99.90;;;;;;2057272;28;20089;-71
2021/08/04 04:16:41;;;;;;;4.78;4.32;;;15.10;99.90;;;;;;2057144;28;20031;-71
2021/08/04 04:17:41;;;;;;;6.72;5.00;;;15.10;99.90;;;;;;2057570;28;20038;-70
2021/08/04 04:18:42;;;;;;;5.00;4.50;;;15.10;99.90;;;;;;2057429;28;20035;-70
2021/08/04 04:19:42;;;;;;;5.80;4.93;;;15.10;99.90;;;;;;2057529;28;20053;-69
2021/08/04 04:20:43;;;;;;;5.40;4.90;;;15.10;99.90;;;;;;2057460;28;20085;-70
2021/08/04 04:21:43;;;;;;;5.32;4.82;;;15.10;99.90;;;;;;2056978;28;20101;-70
2021/08/04 04:22:44;;;;;;;5.93;4.60;;;15.10;99.90;;;;;;2057313;28;20031;-70
2021/08/04 04:23:45;;;;;;;7.20;4.90;;;15.10;99.90;;;;;;2057464;28;20553;-70
2021/08/04 04:24:46;;;;;;;5.65;4.60;;;15.10;99.90;;;;;;2057263;28;20023;-70
2021/08/04 04:25:46;;;;;;;5.72;4.28;;;15.10;99.90;;;;;;2056948;28;20031;-69
2021/08/04 04:26:47;;;;;;;5.45;4.80;;;15.20;99.90;;;;;;2056780;28;20027;-69
2021/08/04 04:27:50;;;;;;;5.75;4.50;;;15.20;99.90;;;;;;2056993;28;20023;-69
2021/08/04 04:28:51;;;;;;;6.15;4.97;;;15.20;99.90;;;;;;2056085;28;20125;-70
2021/08/04 04:29:51;;;;;;;6.75;5.03;;;15.30;99.90;;;;;;2048383;29;20054;-70
2021/08/04 04:30:52;;;;;;;5.15;4.70;;;15.30;99.90;;;;;;2056434;28;20026;-70
2021/08/04 04:31:52;;;;;;;5.60;4.22;;;15.30;99.90;;;;;;2056403;28;20094;-70
2021/08/04 04:32:53;;;;;;;5.68;5.07;;;15.30;99.90;;;;;;2056783;28;20467;-70
2021/08/04 04:33:54;;;;;;;7.38;4.90;;;15.40;99.90;;;;;;2056952;28;20474;-69
2021/08/04 04:34:54;;;;;;;6.57;5.20;;;15.40;99.90;;;;;;2056439;28;20031;-70
2021/08/04 04:35:55;;;;;;;7.72;5.28;;;15.40;99.90;;;;;;2056225;28;20439;-69
2021/08/04 04:36:56;;;;;;;5.85;5.25;;;15.40;99.90;;;;;;2055969;28;20031;-70
2021/08/04 04:37:56;;;;;;;5.82;4.75;;;15.40;99.90;;;;;;2056224;28;20169;-70
2021/08/04 04:38:57;;;;;;;7.53;4.80;;;15.50;99.90;;;;;;2055758;28;20039;-70
2021/08/04 04:39:57;;;;;;;5.95;5.20;;;15.50;99.90;;;;;;2056831;28;20019;-71
2021/08/04 04:40:58;;;;;;;7.45;5.65;;;15.60;99.90;;;;;;2057172;28;20093;-70
2021/08/04 04:41:59;;;;;;;5.53;5.00;;;15.60;99.90;;;;;;2056662;28;20034;-70
2021/08/04 04:42:59;;;;;;;5.93;5.20;;;15.60;99.90;;;;;;2056808;28;20501;-69
2021/08/04 04:44:00;;;;;;;7.07;5.35;;;15.60;99.90;;;;;;2056725;28;20121;-68
2021/08/04 04:45:01;;;;;;;7.03;5.50;;;15.60;99.90;;;;;;2056826;28;20030;-69
2021/08/04 04:46:02;;;;;;;5.63;4.90;;;15.70;99.90;;;;;;2057120;28;20438;-69
2021/08/04 04:47:06;;;;;;;6.03;5.30;;;15.60;99.90;;;;;;2056545;28;20106;-71
2021/08/04 04:48:07;;;;;;;7.13;5.35;;;15.70;99.90;;;;;;2056422;28;20027;-70
2021/08/04 04:49:08;;;;;;;9.07;5.75;;;15.70;99.90;;;;;;2056642;28;20046;-70
2021/08/04 04:50:09;;;;;;;7.70;5.60;;;15.70;99.90;;;;;;2056472;28;20642;-70
2021/08/04 04:51:10;;;;;;;7.15;5.70;;;15.70;99.90;;;;;;2056772;28;20035;-71
2021/08/04 04:52:10;;;;;;;8.02;6.13;;;15.70;99.90;;;;;;2056217;28;20474;-70
2021/08/04 04:53:11;;;;;;;8.07;6.55;;;15.70;99.90;;;;;;2056230;28;20062;-70
2021/08/04 04:54:12;;;;;;;6.80;6.10;;;15.70;99.90;;;;;;2055963;28;20031;-71
2021/08/04 04:55:13;;;;;;;6.15;5.47;;;15.60;99.90;;;;;;2055985;28;20037;-70
2021/08/04 04:56:14;;;;;;;7.20;5.38;;;15.70;99.90;;;;;;2056420;28;20023;-70
2021/08/04 04:57:14;;;;;;;6.30;5.57;;;15.70;99.90;;;;;;2056670;28;20114;-71
2021/08/04 04:58:18;;;;;;;5.45;4.95;;;15.70;99.90;;;;;;2055558;28;20549;-71
2021/08/04 04:59:18;;;;;;;6.25;5.65;;;15.70;99.90;;;;;;2048316;28;20159;-71
2021/08/04 05:00:19;;;;;;;6.40;5.40;;;15.70;99.90;;;;;;2056044;28;20039;-71
2021/08/04 05:01:20;;;;;;;5.63;5.00;;;15.70;99.90;;;;;;2056713;28;20117;-71
2021/08/04 05:02:20;;;;;;;6.03;5.43;;;15.70;99.90;;;;;;2056522;28;20506;-70
2021/08/04 05:03:21;;;;;;;8.70;5.68;;;15.70;99.90;;;;;;2055608;28;20030;-70
2021/08/04 05:04:22;;;;;;;7.70;5.93;;;15.70;99.90;;;;;;2055415;28;20031;-69
2021/08/04 05:05:22;;;;;;;6.50;5.90;;;15.80;99.90;;;;;;2056472;28;20062;-70
2021/08/04 05:06:23;;;;;;;6.20;5.60;;;15.80;99.90;;;;;;2056334;28;20030;-70
2021/08/04 05:07:24;;;;;;;7.07;6.10;;;15.80;99.90;;;;;;2056002;28;20042;-70
2021/08/04 05:08:24;;;;;;;6.53;5.90;;;15.80;99.90;;;;;;2055491;28;20038;-71
2021/08/04 05:09:25;;;;;;;6.85;6.15;;;15.90;99.90;;;;;;2056536;28;20027;-71
2021/08/04 05:10:25;;;;;;;6.15;5.55;;;15.90;99.90;;;;;;2056541;28;20475;-71
2021/08/04 05:11:26;;;;;;;8.10;6.40;;;15.90;99.90;;;;;;2055899;28;20026;-71
2021/08/04 05:12:27;;;;;;;9.60;6.05;;;16.00;99.90;;;;;;2055896;28;20038;-73
2021/08/04 05:13:28;;;;;;;7.07;6.30;;;16.00;99.90;;;;;;2056267;28;20113;-78
2021/08/04 05:14:28;;;;;;;7.25;6.45;;;16.00;99.90;;;;;;2056180;28;20066;-71
2021/08/04 05:15:29;;;;;;;11.23;6.80;;;16.00;99.90;;;;;;2055840;28;20557;-75
2021/08/04 05:16:29;;;;;;;7.57;6.07;;;16.10;99.90;;;;;;2055678;28;20110;-71
2021/08/04 05:17:30;;;;;;;8.88;6.50;;;16.10;99.90;;;;;;2056062;28;20395;-74
2021/08/04 05:18:31;;;;;;;10.40;6.60;;;16.10;99.90;;;;;;2055484;28;20041;-73
2021/08/04 05:19:31;;;;;;;6.78;6.07;;;16.10;99.90;;;;;;2056511;28;20049;-71
2021/08/04 05:20:32;;;;;;;7.50;6.07;;;16.10;99.90;;;;;;2056571;28;20478;-72
2021/08/04 05:21:35;;;;;;;7.38;5.95;;;16.10;99.90;;;;;;2055877;28;20475;-71
2021/08/04 05:22:35;;;;;;;7.53;6.38;;;16.20;99.90;;;;;;2056247;28;20033;-71
2021/08/04 05:23:36;;;;;;;6.63;5.97;;;16.20;99.90;;;;;;2056904;28;20065;-71
2021/08/04 05:24:36;;;;;;;8.38;6.25;;;16.20;99.90;;;;;;2056985;28;20113;-71
2021/08/04 05:25:38;;;;;;;7.50;6.07;;;16.20;99.90;;;;;;2056076;28;20521;-71
2021/08/04 05:26:38;;;;;;;10.63;6.68;;;16.30;99.90;;;;;;2056149;28;20035;-70
2021/08/04 05:27:39;;;;;;;9.77;6.97;;;16.30;99.90;;;;;;2057066;28;20035;-78